Time;durP1;ratioP1;P1;durP2;ratioP2;P2;SDS_P1;SDS_P2;PMS_P1;PMS_P2;Temp;Humidity;BMP_temperature;BMP_pressure;BME280_temperature;BME280_humidity;BME280_pressure;Samples;Min_cycle;Max_cycle;Signal;HPM_P1;HPM_P2
2022/11/11 00:00:18;;;;;;;0.10;0.10;;;;;;;11.31;100.00;102485.06;10474429;28;20317;-80
2022/11/11 00:05:20;;;;;;;0.10;0.10;;;;;;;11.30;100.00;102488.72;10475831;28;20267;-81
2022/11/11 00:10:20;;;;;;;0.00;0.00;;;;;;;11.29;100.00;102495.03;10474019;28;20037;-81
2022/11/11 00:15:21;;;;;;;0.00;0.00;;;;;;;11.27;100.00;102491.63;10470590;28;20055;-81
2022/11/11 00:25:40;;;;;;;0.00;0.00;;;;;;;11.24;100.00;102482.06;10472604;28;20021;-80
2022/11/11 00:30:40;;;;;;;0.10;0.10;;;;;;;11.24;100.00;102486.53;10473172;28;20466;-81
2022/11/11 00:35:52;;;;;;;0.10;0.10;;;;;;;11.24;100.00;102475.88;10474407;28;20025;-80
2022/11/11 00:40:53;;;;;;;0.10;0.10;;;;;;;11.24;100.00;102478.53;10474852;28;20016;-80
2022/11/11 00:45:53;;;;;;;0.10;0.10;;;;;;;11.27;100.00;102500.47;10473478;28;20025;-81
2022/11/11 00:50:59;;;;;;;0.10;0.10;;;;;;;11.27;100.00;102497.81;10470276;28;20361;-81
2022/11/11 00:56:00;;;;;;;0.10;0.10;;;;;;;11.24;100.00;102481.22;10472178;28;20089;-81
2022/11/11 01:01:00;;;;;;;0.10;0.10;;;;;;;11.32;100.00;102484.13;10472196;28;20066;-80
2022/11/11 01:06:04;;;;;;;0.10;0.10;;;;;;;11.33;100.00;102478.63;10472169;28;20284;-80
2022/11/11 01:11:14;;;;;;;0.10;0.10;;;;;;;11.32;100.00;102494.78;10473708;28;20028;-80
2022/11/11 01:16:25;;;;;;;0.10;0.10;;;;;;;11.39;100.00;102500.47;10486280;22;21638;-77
2022/11/11 01:21:26;;;;;;;0.10;0.10;;;;;;;11.39;100.00;102495.97;10458680;28;20029;-77
2022/11/11 01:26:27;;;;;;;0.10;0.10;;;;;;;11.40;100.00;102495.00;10473269;28;20379;-78
2022/11/11 01:31:27;;;;;;;0.08;0.08;;;;;;;11.40;100.00;102518.16;10480533;28;20028;-77
2022/11/11 01:36:28;;;;;;;0.10;0.10;;;;;;;11.40;100.00;102516.34;10476479;28;20032;-77
2022/11/11 01:41:31;;;;;;;0.00;0.00;;;;;;;11.41;100.00;102506.53;10482045;28;20017;-77
2022/11/11 01:46:42;;;;;;;0.10;0.10;;;;;;;11.40;100.00;102504.81;10479391;28;20029;-77
2022/11/11 01:52:11;;;;;;;0.05;0.05;;;;;;;11.39;100.00;102500.47;10477135;28;20029;-78
2022/11/11 01:57:22;;;;;;;0.10;0.10;;;;;;;11.39;100.00;102503.97;10471753;28;20115;-77
2022/11/11 02:02:31;;;;;;;0.10;0.10;;;;;;;11.38;100.00;102491.63;10483647;28;20008;-77
2022/11/11 02:07:34;;;;;;;0.00;0.00;;;;;;;11.39;100.00;102468.44;10486076;28;20040;-77
2022/11/11 02:17:53;;;;;;;0.10;0.10;;;;;;;11.39;100.00;102474.63;10478485;28;20036;-77
2022/11/11 02:23:00;;;;;;;0.10;0.10;;;;;;;11.38;100.00;102490.78;10471306;28;20119;-77
2022/11/11 02:28:04;;;;;;;0.10;0.10;;;;;;;11.38;100.00;102486.28;10486365;28;20027;-77
2022/11/11 02:33:05;;;;;;;0.10;0.10;;;;;;;11.35;100.00;102475.03;10474129;28;20127;-78
2022/11/11 02:38:07;;;;;;;0.00;0.00;;;;;;;11.33;100.00;102491.13;10477995;28;20103;-77
2022/11/11 02:43:07;;;;;;;0.10;0.10;;;;;;;11.27;100.00;102481.81;10484740;28;20395;-77
2022/11/11 02:48:07;;;;;;;0.10;0.10;;;;;;;11.24;100.00;102492.72;10475035;28;20032;-77
2022/11/11 02:53:08;;;;;;;0.10;0.10;;;;;;;11.18;100.00;102511.88;10475979;28;20049;-77
2022/11/11 02:58:09;;;;;;;0.10;0.10;;;;;;;11.11;100.00;102516.00;10468267;28;20029;-77
2022/11/11 03:03:10;;;;;;;0.10;0.10;;;;;;;11.08;100.00;102524.22;10474998;28;20073;-75
2022/11/11 03:08:10;;;;;;;0.10;0.10;;;;;;;11.04;100.00;102517.47;10480415;28;20150;-78
2022/11/11 03:13:10;;;;;;;0.10;0.10;;;;;;;11.00;100.00;102514.19;10475028;28;20025;-77
2022/11/11 03:18:11;;;;;;;0.10;0.10;;;;;;;10.97;100.00;102506.44;10483093;28;20031;-77
2022/11/11 03:23:14;;;;;;;0.10;0.10;;;;;;;10.96;100.00;102514.53;10476710;28;20421;-77
2022/11/11 03:28:16;;;;;;;0.10;0.10;;;;;;;10.93;100.00;102522.78;10486928;28;20060;-77
2022/11/11 03:33:17;;;;;;;0.10;0.10;;;;;;;10.92;100.00;102515.75;10481911;28;20036;-77
2022/11/11 03:38:22;;;;;;;0.10;0.10;;;;;;;10.88;100.00;102509.81;10481844;28;20032;-77
2022/11/11 03:43:25;;;;;;;0.10;0.10;;;;;;;10.86;100.00;102517.94;10477394;28;20456;-77
2022/11/11 03:48:27;;;;;;;0.10;0.10;;;;;;;10.84;100.00;102524.34;10479528;28;20482;-77
2022/11/11 03:53:28;;;;;;;0.00;0.00;;;;;;;10.82;100.00;102529.81;10483324;28;20020;-77
2022/11/11 03:58:28;;;;;;;0.00;0.00;;;;;;;10.79;100.00;102523.84;10480397;28;20013;-77
2022/11/11 04:30:09;;;;;;;0.10;0.10;;;;;;;10.61;100.00;102564.28;10468591;28;20061;-77
2022/11/11 04:35:12;;;;;;;0.10;0.10;;;;;;;10.58;100.00;102556.50;10483080;28;20052;-77
2022/11/11 04:45:31;;;;;;;0.10;0.10;;;;;;;10.56;100.00;102560.25;10475265;28;20017;-77
2022/11/11 04:50:39;;;;;;;0.10;0.10;;;;;;;10.53;100.00;102557.81;10477376;28;20020;-77
2022/11/11 05:01:00;;;;;;;0.10;0.10;;;;;;;10.49;100.00;102548.38;10449141;28;20029;-77
2022/11/11 05:11:30;;;;;;;0.03;0.03;;;;;;;10.40;100.00;102531.28;10467446;28;20279;-77
2022/11/11 05:21:56;;;;;;;0.10;0.10;;;;;;;10.34;100.00;102532.59;10451281;28;20025;-75
2022/11/11 05:26:57;;;;;;;0.00;0.00;;;;;;;10.30;100.00;102541.78;10455121;28;20031;-75
2022/11/11 05:31:57;;;;;;;0.00;0.00;;;;;;;10.27;100.00;102547.34;10446770;28;20391;-75
2022/11/11 05:36:57;;;;;;;0.10;0.10;;;;;;;10.25;100.00;102556.38;10454719;28;20514;-75
2022/11/11 05:41:58;;;;;;;0.10;0.10;;;;;;;10.20;100.00;102556.72;10449174;28;20391;-75
2022/11/11 05:46:58;;;;;;;0.10;0.10;;;;;;;10.18;100.00;102547.97;10458804;28;20048;-75
2022/11/11 05:51:58;;;;;;;0.00;0.00;;;;;;;10.12;100.00;102546.66;10448269;28;20033;-75
2022/11/11 05:56:59;;;;;;;0.10;0.10;;;;;;;10.09;100.00;102557.50;10452528;28;20523;-75
2022/11/11 06:02:00;;;;;;;0.10;0.10;;;;;;;10.06;100.00;102559.56;10453001;28;20100;-75
2022/11/11 06:07:00;;;;;;;0.10;0.10;;;;;;;10.05;100.00;102565.84;10456346;28;20081;-75
2022/11/11 06:12:00;;;;;;;0.20;0.20;;;;;;;10.01;100.00;102569.72;10444097;28;20021;-75
2022/11/11 06:17:01;;;;;;;0.07;0.07;;;;;;;9.96;100.00;102568.22;10451269;28;20052;-76
2022/11/11 06:22:03;;;;;;;0.10;0.10;;;;;;;9.95;100.00;102577.19;10449969;28;20483;-74
2022/11/11 06:27:03;;;;;;;0.10;0.10;;;;;;;9.97;100.00;102596.53;10461705;28;20035;-75
2022/11/11 06:32:03;;;;;;;0.10;0.10;;;;;;;9.98;100.00;102600.06;10456366;28;20100;-74
2022/11/11 06:37:03;;;;;;;0.07;0.07;;;;;;;9.91;100.00;102615.63;10472507;28;20020;-74
2022/11/11 06:42:04;;;;;;;0.10;0.10;;;;;;;9.87;100.00;102631.94;10463623;28;20016;-74
2022/11/11 06:47:04;;;;;;;0.10;0.10;;;;;;;9.82;100.00;102634.91;10466505;28;20041;-75
2022/11/11 06:52:04;;;;;;;0.10;0.10;;;;;;;9.78;100.00;102638.78;10470940;28;20029;-75
2022/11/11 06:57:05;;;;;;;0.10;0.10;;;;;;;9.77;100.00;102636.19;10466182;28;20025;-75
2022/11/11 07:02:05;;;;;;;0.00;0.00;;;;;;;9.76;100.00;102648.66;10453384;28;20153;-75
2022/11/11 07:07:05;;;;;;;0.00;0.00;;;;;;;9.77;100.00;102649.50;10450333;28;20033;-75
2022/11/11 07:12:06;;;;;;;0.10;0.10;;;;;;;9.74;100.00;102656.78;10448739;28;20351;-74
2022/11/11 07:17:06;;;;;;;0.00;0.00;;;;;;;9.74;100.00;102661.22;10459658;28;20420;-74
2022/11/11 07:22:07;;;;;;;0.10;0.10;;;;;;;9.74;100.00;102651.44;10475601;22;20049;-79
2022/11/11 07:27:07;;;;;;;0.10;0.10;;;;;;;9.74;100.00;102653.22;10451391;28;20347;-79
2022/11/11 07:32:07;;;;;;;0.10;0.10;;;;;;;9.77;100.00;102657.50;10452022;28;20037;-80
2022/11/11 07:37:08;;;;;;;0.10;0.10;;;;;;;9.80;100.00;102663.44;10461920;28;20055;-78
2022/11/11 07:42:08;;;;;;;0.00;0.00;;;;;;;9.81;100.00;102662.50;10447976;28;20321;-79
2022/11/11 07:47:08;;;;;;;0.10;0.10;;;;;;;9.84;100.00;102674.75;10469083;28;20059;-79
2022/11/11 07:52:08;;;;;;;0.10;0.10;;;;;;;9.86;100.00;102675.47;10440130;28;20104;-79
2022/11/11 07:57:09;;;;;;;0.00;0.00;;;;;;;9.88;100.00;102678.88;10451078;28;20032;-79
2022/11/11 08:02:10;;;;;;;0.10;0.10;;;;;;;9.92;100.00;102689.22;10452136;28;20033;-80
2022/11/11 08:07:11;;;;;;;0.10;0.10;;;;;;;9.94;100.00;102694.41;10452014;28;20119;-78
2022/11/11 08:17:30;;;;;;;0.00;0.00;;;;;;;10.01;100.00;102710.81;10438953;28;20029;-80
2022/11/11 08:22:41;;;;;;;0.00;0.00;;;;;;;10.04;100.00;102705.28;10434917;28;20116;-80
2022/11/11 08:27:42;;;;;;;0.10;0.10;;;;;;;10.07;100.00;102724.53;10442175;28;20259;-79
2022/11/11 08:32:42;;;;;;;0.10;0.10;;;;;;;10.09;100.00;102724.41;10449791;28;20028;-79
2022/11/11 08:37:42;;;;;;;0.00;0.00;;;;;;;10.13;100.00;102736.56;10452115;28;20017;-79
2022/11/11 08:42:43;;;;;;;0.10;0.10;;;;;;;10.15;100.00;102740.81;10441115;28;20021;-79
2022/11/11 08:47:43;;;;;;;0.10;0.10;;;;;;;10.16;100.00;102736.34;10468829;28;20036;-79
2022/11/11 08:52:48;;;;;;;0.00;0.00;;;;;;;10.19;100.00;102747.59;10449154;28;20290;-79
2022/11/11 08:57:59;;;;;;;0.10;0.10;;;;;;;10.23;100.00;102744.72;10448738;28;20264;-80
2022/11/11 09:03:01;;;;;;;0.08;0.08;;;;;;;10.26;100.00;102741.84;10438650;28;20032;-79
2022/11/11 09:08:07;;;;;;;0.10;0.10;;;;;;;10.31;100.00;102743.25;10462219;28;20458;-79
2022/11/11 09:13:07;;;;;;;0.10;0.10;;;;;;;10.28;100.00;102729.31;10434553;28;20021;-79
2022/11/11 09:18:09;;;;;;;0.00;0.00;;;;;;;10.38;100.00;102744.53;10441150;28;20025;-79
2022/11/11 09:23:09;;;;;;;0.10;0.10;;;;;;;10.39;100.00;102748.88;10433942;28;20036;-79
2022/11/11 09:28:10;;;;;;;0.00;0.00;;;;;;;10.42;100.00;102758.47;10444233;28;20033;-78
2022/11/11 09:33:11;;;;;;;0.03;0.03;;;;;;;10.48;100.00;102767.81;10445670;28;20044;-79
2022/11/11 09:38:11;;;;;;;0.10;0.10;;;;;;;10.53;100.00;102771.88;10457050;28;20017;-79
2022/11/11 09:43:37;;;;;;;0.10;0.10;;;;;;;10.60;100.00;102783.75;10444683;28;20021;-80
2022/11/11 09:48:49;;;;;;;0.10;0.10;;;;;;;10.68;100.00;102780.56;10424075;28;20022;-79
2022/11/11 09:53:57;;;;;;;0.10;0.10;;;;;;;10.77;100.00;102773.69;10432098;28;20080;-80
2022/11/11 09:59:14;;;;;;;0.10;0.10;;;;;;;10.84;100.00;102791.78;10435591;28;20013;-80
2022/11/11 10:04:39;;;;;;;0.10;0.10;;;;;;;10.93;100.00;102790.25;10457427;28;20024;-80
2022/11/11 10:09:55;;;;;;;0.10;0.10;;;;;;;11.04;100.00;102781.47;10435030;28;20045;-80
2022/11/11 10:14:56;;;;;;;0.10;0.10;;;;;;;11.21;100.00;102783.72;10427740;28;20025;-80
2022/11/11 10:19:59;;;;;;;0.10;0.10;;;;;;;11.36;100.00;102789.69;10441030;28;20071;-80
2022/11/11 10:25:11;;;;;;;0.10;0.10;;;;;;;11.50;100.00;102788.66;10438833;28;20026;-80
2022/11/11 10:30:19;;;;;;;0.10;0.10;;;;;;;11.62;100.00;102801.06;10428113;28;20025;-80
2022/11/11 10:35:26;;;;;;;0.10;0.10;;;;;;;11.67;100.00;102801.56;10432271;28;20021;-80
2022/11/11 10:40:34;;;;;;;0.10;0.10;;;;;;;11.75;100.00;102798.28;10417921;28;20028;-80
2022/11/11 10:46:01;;;;;;;0.10;0.10;;;;;;;11.79;100.00;102800.59;10456595;28;20026;-80
2022/11/11 10:51:03;;;;;;;0.10;0.10;;;;;;;11.88;100.00;102807.09;10438431;28;20067;-80
2022/11/11 10:56:33;;;;;;;0.10;0.10;;;;;;;11.93;100.00;102799.56;10451352;28;20050;-80
2022/11/11 11:01:40;;;;;;;0.10;0.10;;;;;;;11.91;100.00;102796.16;10446049;28;20092;-80
2022/11/11 11:06:45;;;;;;;0.10;0.10;;;;;;;11.88;100.00;102793.72;10447505;28;20023;-80
2022/11/11 11:11:59;;;;;;;0.10;0.10;;;;;;;11.91;100.00;102798.00;10436115;28;20395;-80
2022/11/11 11:17:06;;;;;;;;;;;;;;;11.95;100.00;102800.28;10441603;28;20025;-81
2022/11/11 11:22:06;;;;;;;0.10;0.10;;;;;;;11.98;100.00;102799.19;10426429;28;19913;-80
2022/11/11 11:27:07;;;;;;;0.10;0.10;;;;;;;12.03;100.00;102793.50;10462107;28;20021;-80
2022/11/11 11:32:18;;;;;;;0.10;0.10;;;;;;;12.02;100.00;102799.81;10461528;28;20032;-80
2022/11/11 11:37:21;;;;;;;0.10;0.10;;;;;;;12.04;100.00;102797.88;10445901;28;20510;-81
2022/11/11 11:42:36;;;;;;;0.10;0.10;;;;;;;12.01;100.00;102809.63;10459736;28;20017;-80
2022/11/11 11:47:44;;;;;;;0.00;0.00;;;;;;;12.03;100.00;102801.53;10425272;28;20025;-80
2022/11/11 11:53:22;;;;;;;0.10;0.10;;;;;;;12.02;100.00;102800.66;10465092;28;20033;-81
2022/11/11 11:58:39;;;;;;;0.10;0.10;;;;;;;11.96;100.00;102801.16;10452008;28;20027;-80
2022/11/11 12:04:01;;;;;;;0.10;0.10;;;;;;;11.95;100.00;102805.63;10480750;28;20036;-80
2022/11/11 12:09:04;;;;;;;0.10;0.10;;;;;;;11.93;100.00;102812.94;10459921;28;20053;-81
2022/11/11 12:14:27;;;;;;;0.10;0.10;;;;;;;11.88;100.00;102806.25;10435157;28;20075;-80
2022/11/11 12:19:34;;;;;;;0.10;0.10;;;;;;;11.81;100.00;102812.97;10438728;28;20021;-80
2022/11/11 12:24:48;;;;;;;0.10;0.10;;;;;;;11.71;100.00;102824.38;10429619;28;20024;-81
2022/11/11 12:29:58;;;;;;;0.10;0.10;;;;;;;11.70;100.00;102821.84;10442189;28;20476;-81
2022/11/11 12:35:01;;;;;;;0.10;0.10;;;;;;;11.63;100.00;102824.09;10464337;28;20056;-80
2022/11/11 12:40:19;;;;;;;0.00;0.00;;;;;;;11.59;100.00;102825.31;10440762;28;20055;-80
2022/11/11 12:45:23;;;;;;;0.10;0.10;;;;;;;11.57;100.00;102830.75;10438693;28;20112;-80
2022/11/11 12:50:29;;;;;;;0.10;0.10;;;;;;;11.54;100.00;102822.13;10437330;28;20030;-80
2022/11/11 12:55:42;;;;;;;0.10;0.10;;;;;;;11.55;100.00;102829.19;10452159;28;20040;-80
2022/11/11 13:01:08;;;;;;;0.10;0.10;;;;;;;11.59;100.00;102827.13;10428640;28;20017;-79
2022/11/11 13:06:22;;;;;;;0.10;0.10;;;;;;;11.53;100.00;102823.97;10422567;28;20064;-79
2022/11/11 13:11:27;;;;;;;0.00;0.00;;;;;;;11.49;100.00;102834.97;10421973;28;20036;-80
2022/11/11 13:16:27;;;;;;;0.10;0.10;;;;;;;11.46;100.00;102845.88;10444503;28;20017;-79
2022/11/11 13:21:40;;;;;;;0.10;0.10;;;;;;;11.43;100.00;102843.44;10467762;22;20041;-87
2022/11/11 13:26:56;;;;;;;0.10;0.10;;;;;;;11.38;100.00;102843.81;10512976;28;20020;-89
2022/11/11 13:31:59;;;;;;;0.10;0.10;;;;;;;11.30;100.00;102846.19;10469902;28;20027;-87
2022/11/11 13:37:03;;;;;;;0.10;0.10;;;;;;;11.28;100.00;102853.44;10455791;28;20060;-88
2022/11/11 13:42:05;;;;;;;0.10;0.10;;;;;;;11.23;100.00;102845.81;10453039;28;20029;-87
2022/11/11 13:47:14;;;;;;;0.10;0.10;;;;;;;11.20;100.00;102846.03;10435915;28;20048;-87
2022/11/11 13:52:21;;;;;;;0.00;0.00;;;;;;;11.14;100.00;102853.63;10449903;28;20484;-88
2022/11/11 13:57:25;;;;;;;0.10;0.10;;;;;;;11.16;100.00;102863.22;10462687;28;20055;-88
2022/11/11 14:02:34;;;;;;;0.10;0.10;;;;;;;11.18;100.00;102860.44;10456848;28;20731;-88
2022/11/11 14:07:43;;;;;;;0.10;0.10;;;;;;;11.16;100.00;102863.22;10448739;28;20694;-87
2022/11/11 14:12:51;;;;;;;0.10;0.10;;;;;;;11.18;100.00;102873.78;10461700;28;20025;-88
2022/11/11 14:17:52;;;;;;;0.10;0.10;;;;;;;11.15;100.00;102863.34;10445088;28;20028;-87
2022/11/11 14:22:53;;;;;;;0.10;0.10;;;;;;;11.13;100.00;102875.94;10445129;28;20052;-87
2022/11/11 14:27:53;;;;;;;0.10;0.10;;;;;;;11.09;100.00;102875.31;10460591;28;20029;-87
2022/11/11 14:33:23;;;;;;;0.10;0.10;;;;;;;11.06;100.00;102875.53;10463394;28;20025;-87
2022/11/11 14:38:41;;;;;;;0.00;0.00;;;;;;;11.02;100.00;102876.72;10451282;28;20291;-88
2022/11/11 14:43:42;;;;;;;0.10;0.10;;;;;;;10.98;100.00;102878.75;10455345;28;20052;-87
2022/11/11 14:48:56;;;;;;;0.10;0.10;;;;;;;11.00;100.00;102886.66;10448402;28;20018;-88
2022/11/11 14:53:57;;;;;;;0.10;0.10;;;;;;;10.99;100.00;102877.78;10434619;28;20053;-88
2022/11/11 14:59:06;;;;;;;0.10;0.10;;;;;;;11.02;100.00;102890.03;10459284;28;20017;-89
2022/11/11 15:04:08;;;;;;;0.10;0.10;;;;;;;11.02;100.00;102890.03;10455019;28;20028;-90
2022/11/11 15:09:17;;;;;;;0.10;0.10;;;;;;;11.00;100.00;102892.00;10448344;28;20024;-89
2022/11/11 15:14:55;;;;;;;0.10;0.10;;;;;;;10.99;100.00;102896.44;10413377;28;20508;-89
2022/11/11 15:20:21;;;;;;;0.10;0.10;;;;;;;10.98;100.00;102909.91;10426649;28;20096;-88
2022/11/11 15:25:21;;;;;;;0.10;0.10;;;;;;;10.96;100.00;102902.00;10445138;28;20021;-89
2022/11/11 15:36:35;;;;;;;0.00;0.00;;;;;;;10.92;100.00;102899.69;10542738;22;20047;-76
2022/11/11 15:41:38;;;;;;;0.00;0.00;;;;;;;10.90;100.00;102907.78;10497963;28;20038;-76
2022/11/11 15:46:42;;;;;;;0.10;0.10;;;;;;;10.88;100.00;102915.06;10520397;28;20016;-76
2022/11/11 15:51:42;;;;;;;0.00;0.00;;;;;;;10.88;100.00;102923.06;10529396;28;20074;-75
2022/11/11 15:56:43;;;;;;;0.10;0.10;;;;;;;10.87;100.00;102924.00;10518409;28;20062;-76
2022/11/11 16:01:43;;;;;;;0.10;0.10;;;;;;;10.85;100.00;102916.13;10534525;28;20359;-75
2022/11/11 16:06:44;;;;;;;0.00;0.00;;;;;;;10.85;100.00;102920.63;10492000;28;20024;-75
2022/11/11 16:11:45;;;;;;;0.10;0.10;;;;;;;10.84;100.00;102925.06;10522115;28;20023;-75
2022/11/11 16:16:45;;;;;;;0.10;0.10;;;;;;;10.85;100.00;102932.13;10493110;28;20140;-75
2022/11/11 16:21:51;;;;;;;0.10;0.10;;;;;;;10.83;100.00;102925.19;10511344;28;20266;-75
2022/11/11 16:26:52;;;;;;;0.10;0.10;;;;;;;10.83;100.00;102936.72;10519180;28;20027;-75
2022/11/11 16:31:52;;;;;;;0.10;0.10;;;;;;;10.82;100.00;102935.00;10526354;28;20534;-75
2022/11/11 16:37:08;;;;;;;0.10;0.10;;;;;;;10.82;100.00;102937.69;10515956;28;20372;-75
2022/11/11 16:42:28;;;;;;;0.10;0.10;;;;;;;10.82;100.00;102936.81;10508222;28;20027;-75
2022/11/11 16:47:31;;;;;;;0.10;0.10;;;;;;;10.81;100.00;102941.28;10504662;28;20033;-76
2022/11/11 16:52:44;;;;;;;0.10;0.10;;;;;;;10.77;100.00;102942.47;10478750;28;20074;-75
2022/11/11 16:57:44;;;;;;;0.10;0.10;;;;;;;10.75;100.00;102947.06;10496991;28;20052;-75
2022/11/11 17:02:45;;;;;;;0.10;0.10;;;;;;;10.73;100.00;102943.63;10487160;28;20085;-75
2022/11/11 17:07:45;;;;;;;0.00;0.00;;;;;;;10.73;100.00;102943.63;10502014;28;20028;-75
2022/11/11 17:12:46;;;;;;;0.10;0.10;;;;;;;10.71;100.00;102944.75;10511094;28;20367;-75
2022/11/11 17:17:47;;;;;;;0.00;0.00;;;;;;;10.70;100.00;102938.53;10522669;28;20039;-76
2022/11/11 17:22:49;;;;;;;0.10;0.10;;;;;;;10.69;100.00;102942.16;10492131;28;20513;-75
2022/11/11 17:27:49;;;;;;;0.10;0.10;;;;;;;10.65;100.00;102943.34;10525714;28;20032;-75
2022/11/11 17:32:49;;;;;;;0.00;0.00;;;;;;;10.62;100.00;102948.91;10509343;28;20032;-76
2022/11/11 17:37:49;;;;;;;0.00;0.00;;;;;;;10.61;100.00;102955.16;10506285;28;20047;-75
2022/11/11 17:42:50;;;;;;;0.08;0.08;;;;;;;10.58;100.00;102950.06;10493454;28;20087;-75
2022/11/11 17:47:50;;;;;;;0.10;0.10;;;;;;;10.53;100.00;102944.19;10471452;28;20023;-75
2022/11/11 17:52:54;;;;;;;0.10;0.10;;;;;;;10.51;100.00;102944.31;10504128;28;20109;-75
2022/11/11 17:57:56;;;;;;;0.10;0.10;;;;;;;10.47;100.00;102939.28;10505815;28;20099;-75
2022/11/11 18:02:57;;;;;;;0.10;0.10;;;;;;;10.46;100.00;102945.59;10506986;28;20016;-75
2022/11/11 18:07:57;;;;;;;0.00;0.00;;;;;;;10.43;100.00;102946.66;10503982;28;20024;-75
2022/11/11 18:12:58;;;;;;;0.10;0.10;;;;;;;10.41;100.00;102954.75;10523276;28;20055;-75
2022/11/11 18:17:58;;;;;;;0.10;0.10;;;;;;;10.41;100.00;102959.22;10521748;28;20016;-75
2022/11/11 18:22:58;;;;;;;0.00;0.00;;;;;;;10.41;100.00;102959.22;10506068;28;20394;-76
2022/11/11 18:27:58;;;;;;;0.10;0.10;;;;;;;10.42;100.00;102959.13;10515541;28;20099;-75
2022/11/11 18:32:59;;;;;;;0.10;0.10;;;;;;;10.39;100.00;102956.66;10512013;28;20097;-75
2022/11/11 18:37:59;;;;;;;0.10;0.10;;;;;;;10.37;100.00;102958.59;10519568;28;20054;-75
2022/11/11 18:43:00;;;;;;;0.10;0.10;;;;;;;10.37;100.00;102957.72;10510919;28;20027;-75
2022/11/11 18:48:00;;;;;;;0.10;0.10;;;;;;;10.35;100.00;102949.84;10506129;28;20031;-75
2022/11/11 18:53:00;;;;;;;0.10;0.10;;;;;;;10.36;100.00;102954.22;10522914;28;20040;-74
2022/11/11 18:58:00;;;;;;;0.10;0.10;;;;;;;10.34;100.00;102947.28;10510917;28;20023;-74
2022/11/11 19:03:01;;;;;;;0.10;0.10;;;;;;;10.35;100.00;102954.31;10505932;28;20016;-75
2022/11/11 19:08:02;;;;;;;0.10;0.10;;;;;;;10.33;100.00;102937.59;10516161;28;20031;-75
2022/11/11 19:13:02;;;;;;;0.10;0.10;;;;;;;10.35;100.00;102935.66;10498827;28;20266;-75
2022/11/11 19:18:03;;;;;;;0.00;0.00;;;;;;;10.36;100.00;102953.38;10511087;28;20379;-75
2022/11/11 19:23:03;;;;;;;0.10;0.10;;;;;;;10.35;100.00;102951.66;10481088;22;20100;-75
2022/11/11 19:28:06;;;;;;;0.10;0.10;;;;;;;10.35;100.00;102946.31;10440325;28;20025;-75
2022/11/11 19:33:07;;;;;;;0.10;0.10;;;;;;;10.33;100.00;102957.09;10458110;28;20056;-75
2022/11/11 19:38:07;;;;;;;0.03;0.03;;;;;;;10.32;100.00;102952.72;10440149;28;20491;-75
2022/11/11 19:43:07;;;;;;;0.10;0.10;;;;;;;10.36;100.00;102966.69;10457726;28;20087;-75
2022/11/11 19:48:07;;;;;;;0.10;0.10;;;;;;;10.39;100.00;102967.31;10457528;28;20044;-75
2022/11/11 19:53:12;;;;;;;0.08;0.08;;;;;;;10.43;100.00;102967.97;10457464;28;20020;-75
2022/11/11 19:58:12;;;;;;;;;;;;;;;10.50;100.00;102957.72;10458157;28;20387;-75
2022/11/11 20:03:12;;;;;;;0.10;0.10;;;;;;;10.58;100.00;102968.72;10457560;28;19909;-75
2022/11/11 20:08:13;;;;;;;0.05;0.05;;;;;;;10.62;100.00;102962.22;10456676;28;20568;-75
2022/11/11 20:13:13;;;;;;;0.00;0.00;;;;;;;10.67;100.00;102972.53;10456579;28;20079;-75
2022/11/11 20:18:14;;;;;;;0.10;0.10;;;;;;;10.66;100.00;102969.03;10461310;28;20024;-76
2022/11/11 20:23:15;;;;;;;0.10;0.10;;;;;;;10.67;100.00;102975.22;10471124;28;20557;-75
2022/11/11 20:28:15;;;;;;;0.10;0.10;;;;;;;10.67;100.00;102980.53;10486883;28;20125;-76
2022/11/11 20:33:15;;;;;;;0.10;0.10;;;;;;;10.65;100.00;102984.19;10448622;28;20559;-75
2022/11/11 20:38:15;;;;;;;0.10;0.10;;;;;;;10.68;100.00;102990.25;10484349;28;20024;-75
2022/11/11 20:43:16;;;;;;;0.00;0.00;;;;;;;10.69;100.00;102992.81;10451025;28;20425;-75
2022/11/11 20:48:16;;;;;;;0.00;0.00;;;;;;;10.65;100.00;102997.50;10479632;28;20071;-74
2022/11/11 20:53:16;;;;;;;0.10;0.10;;;;;;;10.62;100.00;103004.88;10462891;28;20020;-74
2022/11/11 20:58:16;;;;;;;0.10;0.10;;;;;;;10.64;100.00;103006.44;10473768;28;20071;-74
2022/11/11 21:03:17;;;;;;;0.10;0.10;;;;;;;10.69;100.00;103016.78;10471920;28;20111;-74
2022/11/11 21:08:17;;;;;;;0.10;0.10;;;;;;;10.68;100.00;103012.44;10478868;28;20012;-74
2022/11/11 21:13:17;;;;;;;0.00;0.00;;;;;;;10.68;100.00;103027.56;10494042;28;20104;-73
2022/11/11 21:18:18;;;;;;;0.00;0.00;;;;;;;10.63;100.00;103027.88;10464747;28;20118;-75
2022/11/11 21:23:19;;;;;;;0.10;0.10;;;;;;;10.60;100.00;103041.41;10475227;28;20090;-75
2022/11/11 21:28:19;;;;;;;0.10;0.10;;;;;;;10.55;100.00;103031.06;10482098;28;20035;-76
2022/11/11 21:33:19;;;;;;;0.10;0.10;;;;;;;10.51;100.00;103034.91;10470794;28;20745;-75
2022/11/11 21:38:19;;;;;;;0.10;0.10;;;;;;;10.45;100.00;103032.66;10468209;28;20489;-75
2022/11/11 21:43:20;;;;;;;0.10;0.10;;;;;;;10.42;100.00;103036.38;10470573;28;20388;-75
2022/11/11 21:48:20;;;;;;;0.00;0.00;;;;;;;10.40;100.00;103032.97;10455756;28;20443;-75
2022/11/11 21:53:20;;;;;;;0.07;0.07;;;;;;;10.38;100.00;103031.34;10469613;28;20479;-75
2022/11/11 21:58:20;;;;;;;0.10;0.10;;;;;;;10.35;100.00;103027.09;10481563;28;20029;-75
2022/11/11 22:03:21;;;;;;;0.10;0.10;;;;;;;10.33;100.00;103038.84;10462846;28;20028;-74
2022/11/11 22:08:21;;;;;;;0.10;0.10;;;;;;;10.31;100.00;103041.59;10454252;28;20402;-74
2022/11/11 22:13:22;;;;;;;0.10;0.10;;;;;;;10.28;100.00;103049.78;10469783;28;20375;-74
2022/11/11 22:18:22;;;;;;;0.10;0.10;;;;;;;10.28;100.00;103052.44;10455253;28;20029;-73
2022/11/11 22:23:22;;;;;;;0.00;0.00;;;;;;;10.28;100.00;103059.59;10460816;28;20422;-73
2022/11/11 22:28:22;;;;;;;0.10;0.10;;;;;;;10.21;100.00;103059.13;10463578;28;20020;-73
2022/11/11 22:33:23;;;;;;;0.00;0.00;;;;;;;10.12;100.00;103062.38;10480656;28;20028;-74
2022/11/11 22:38:23;;;;;;;0.10;0.10;;;;;;;10.05;100.00;103066.41;10468611;28;20410;-73
2022/11/11 22:43:23;;;;;;;0.10;0.10;;;;;;;9.89;100.00;103079.84;10469222;28;20033;-73
2022/11/11 22:48:24;;;;;;;0.00;0.00;;;;;;;9.68;100.00;103077.63;10467691;28;20741;-73
2022/11/11 22:53:24;;;;;;;0.10;0.10;;;;;;;9.62;100.00;103082.50;10464799;28;20025;-73
2022/11/11 22:58:24;;;;;;;0.10;0.10;;;;;;;9.64;100.00;103075.28;10480030;28;20033;-72
2022/11/11 23:03:24;;;;;;;0.10;0.10;;;;;;;9.69;100.00;103094.47;10474214;28;20023;-72
2022/11/11 23:08:25;;;;;;;0.00;0.00;;;;;;;9.71;100.00;103081.91;10474508;28;20111;-72
2022/11/11 23:13:25;;;;;;;0.00;0.00;;;;;;;9.70;100.00;103086.38;10459458;28;20043;-74
2022/11/11 23:18:25;;;;;;;0.10;0.10;;;;;;;9.73;100.00;103093.31;10473362;28;20387;-74
2022/11/11 23:23:27;;;;;;;0.00;0.00;;;;;;;9.72;100.00;103108.44;10477156;28;20023;-74
2022/11/11 23:28:27;;;;;;;0.10;0.10;;;;;;;9.69;100.00;103105.13;10479347;28;20055;-74
2022/11/11 23:33:32;;;;;;;0.10;0.10;;;;;;;9.64;100.00;103108.06;10461004;28;20067;-74
2022/11/11 23:38:32;;;;;;;;;;;;;;;9.61;100.00;103108.25;10478975;28;20012;-74
2022/11/11 23:43:33;;;;;;;0.10;0.10;;;;;;;9.57;100.00;103113.84;10480628;28;19912;-74
2022/11/11 23:48:34;;;;;;;0.10;0.10;;;;;;;9.51;100.00;103112.44;10475176;28;20038;-73
2022/11/11 23:53:35;;;;;;;0.10;0.10;;;;;;;9.46;100.00;103099.44;10473548;28;20033;-74
2022/11/11 23:58:35;;;;;;;0.10;0.10;;;;;;;9.40;100.00;103102.47;10471081;28;20475;-74
